createdAt,value
2023-03-05T00:00:23.996Z,2.00
2023-03-05T00:02:50.413Z,1.27
2023-03-05T00:05:16.818Z,1.60
2023-03-05T00:07:43.120Z,2.00
2023-03-05T00:10:09.980Z,1.58
2023-03-05T00:12:36.672Z,1.60
2023-03-05T00:15:03.138Z,1.57
2023-03-05T00:17:29.573Z,1.65
2023-03-05T00:19:56.007Z,1.85
2023-03-05T00:22:22.456Z,1.50
2023-03-05T00:24:51.144Z,1.92
2023-03-05T00:27:17.835Z,1.93
2023-03-05T00:29:44.119Z,1.77
2023-03-05T00:32:10.479Z,1.35
2023-03-05T00:34:37.351Z,1.77
2023-03-05T00:37:03.855Z,1.83
2023-03-05T00:39:30.147Z,1.80
2023-03-05T00:41:56.455Z,1.70
2023-03-05T00:44:22.774Z,1.90
2023-03-05T00:46:49.117Z,1.50
2023-03-05T00:49:15.737Z,2.30
2023-03-05T00:51:42.285Z,1.60
2023-03-05T00:54:08.625Z,1.90
2023-03-05T00:56:34.974Z,1.90
2023-03-05T00:59:01.533Z,1.52
2023-03-05T01:01:28.251Z,1.63
2023-03-05T01:03:54.622Z,1.60
2023-03-05T01:06:21.040Z,1.65
2023-03-05T01:08:47.949Z,1.75
2023-03-05T01:11:14.386Z,1.88
2023-03-05T01:13:41.030Z,1.60
2023-03-05T01:16:07.713Z,1.47
2023-03-05T01:18:34.641Z,1.77
2023-03-05T01:21:01.085Z,1.70
2023-03-05T01:23:27.655Z,1.58
2023-03-05T01:25:55.959Z,2.30
2023-03-05T01:28:22.668Z,1.30
2023-03-05T01:30:49.494Z,1.70
2023-03-05T01:33:15.886Z,1.90
2023-03-05T01:35:42.371Z,1.55
2023-03-05T01:38:08.740Z,2.13
2023-03-05T01:40:35.111Z,1.37
2023-03-05T01:43:08.507Z,1.67
2023-03-05T01:45:35.072Z,1.80
2023-03-05T01:48:01.957Z,1.40
2023-03-05T01:50:28.543Z,1.73
2023-03-05T01:53:01.405Z,1.50
2023-03-05T01:55:29.550Z,1.40
2023-03-05T01:58:00.292Z,1.70
2023-03-05T02:00:30.712Z,1.98
2023-03-05T02:03:01.769Z,1.55
2023-03-05T02:05:33.673Z,1.47
2023-03-05T02:08:02.081Z,1.55
2023-03-05T02:10:37.325Z,1.60
2023-03-05T02:13:08.147Z,1.33
2023-03-05T02:15:35.666Z,1.80
2023-03-05T02:18:02.200Z,1.80
2023-03-05T02:20:42.072Z,1.50
2023-03-05T02:23:08.503Z,1.48
2023-03-05T02:25:35.919Z,1.48
2023-03-05T02:28:17.920Z,1.58
2023-03-05T02:30:44.499Z,1.40
2023-03-05T02:33:13.260Z,1.40
2023-03-05T02:35:39.874Z,1.17
2023-03-05T02:38:19.795Z,1.45
2023-03-05T02:40:46.554Z,1.80
2023-03-05T02:43:22.723Z,1.10
2023-03-05T02:45:49.154Z,1.38
2023-03-05T02:48:15.585Z,1.38
2023-03-05T02:50:42.938Z,1.25
2023-03-05T02:53:09.330Z,1.60
2023-03-05T02:55:35.774Z,1.07
2023-03-05T02:58:02.340Z,0.95
2023-03-05T03:00:28.745Z,1.30
2023-03-05T03:02:55.298Z,1.30
2023-03-05T03:05:22.114Z,1.13
2023-03-05T03:07:49.186Z,1.43
2023-03-05T03:10:15.748Z,1.30
2023-03-05T03:12:44.251Z,1.20
2023-03-05T03:15:12.348Z,1.33
2023-03-05T03:17:39.625Z,1.10
2023-03-05T03:20:09.132Z,1.30
2023-03-05T03:22:35.651Z,1.10
2023-03-05T03:25:03.292Z,1.08
2023-03-05T03:27:29.591Z,1.15
2023-03-05T03:29:56.007Z,1.55
2023-03-05T03:32:22.499Z,1.10
2023-03-05T03:34:48.950Z,1.20
2023-03-05T03:37:15.392Z,1.10
2023-03-05T03:39:41.739Z,1.05
2023-03-05T03:42:08.144Z,0.85
2023-03-05T03:44:35.612Z,1.40
2023-03-05T03:47:02.066Z,1.17
2023-03-05T03:49:28.483Z,1.30
2023-03-05T03:51:55.029Z,1.15
2023-03-05T03:54:22.227Z,1.92
2023-03-05T03:56:48.574Z,1.47
2023-03-05T03:59:15.012Z,1.10
2023-03-05T04:01:41.464Z,1.70
2023-03-05T04:04:08.256Z,1.10
2023-03-05T04:06:34.766Z,1.30
2023-03-05T04:09:01.345Z,1.73
2023-03-05T04:11:28.702Z,1.20
2023-03-05T04:13:55.192Z,1.42
2023-03-05T04:16:21.687Z,1.00
2023-03-05T04:18:48.212Z,0.80
2023-03-05T04:21:14.689Z,1.30
2023-03-05T04:23:41.310Z,0.93
2023-03-05T04:26:07.952Z,1.10
2023-03-05T04:28:34.645Z,1.00
2023-03-05T04:31:01.137Z,1.50
2023-03-05T04:33:27.783Z,1.23
2023-03-05T04:35:54.318Z,1.23
2023-03-05T04:38:20.683Z,0.90
2023-03-05T04:40:47.764Z,1.05
2023-03-05T04:43:14.263Z,1.10
2023-03-05T04:45:42.171Z,0.80
2023-03-05T04:48:10.112Z,1.00
2023-03-05T04:50:37.304Z,1.25
2023-03-05T04:53:04.399Z,0.93
2023-03-05T04:55:31.362Z,1.75
2023-03-05T04:57:58.326Z,0.90
2023-03-05T05:00:25.121Z,0.88
2023-03-05T05:02:52.363Z,0.70
2023-03-05T05:05:21.857Z,0.90
2023-03-05T05:07:48.279Z,1.17
2023-03-05T05:10:15.260Z,1.10
2023-03-05T05:12:41.771Z,0.93
2023-03-05T05:15:09.231Z,1.35
2023-03-05T05:17:35.918Z,0.90
2023-03-05T05:20:03.091Z,1.52
2023-03-05T05:22:29.511Z,1.20
2023-03-05T05:24:56.432Z,1.30
2023-03-05T05:27:23.296Z,1.20
2023-03-05T05:29:49.775Z,1.60
2023-03-05T05:32:17.541Z,1.20
2023-03-05T05:34:44.075Z,1.00
2023-03-05T05:37:10.601Z,0.98
2023-03-05T05:39:36.898Z,1.20
2023-03-05T05:42:03.424Z,1.40
2023-03-05T05:44:29.985Z,1.48
2023-03-05T05:46:56.652Z,1.20
2023-03-05T05:49:22.955Z,1.13
2023-03-05T05:51:49.356Z,1.40
2023-03-05T05:54:15.864Z,1.23
2023-03-05T05:56:42.388Z,1.58
2023-03-05T05:59:10.203Z,1.10
2023-03-05T06:01:36.798Z,1.02
2023-03-05T06:04:03.330Z,1.10
2023-03-05T06:06:30.147Z,1.13
2023-03-05T06:08:56.765Z,1.38
2023-03-05T06:11:23.144Z,1.20
2023-03-05T06:13:49.959Z,1.02
2023-03-05T06:16:19.790Z,1.35
2023-03-05T06:18:46.216Z,1.17
2023-03-05T06:21:15.646Z,1.50
2023-03-05T06:23:43.368Z,1.20
2023-03-05T06:26:12.117Z,1.10
2023-03-05T06:28:38.862Z,1.30
2023-03-05T06:31:14.455Z,1.17
2023-03-05T06:33:41.569Z,1.23
2023-03-05T06:36:10.597Z,1.30
2023-03-05T06:38:37.394Z,1.10
2023-03-05T06:41:06.129Z,1.08
2023-03-05T06:43:33.363Z,1.00
2023-03-05T06:46:08.338Z,1.40
2023-03-05T06:48:34.932Z,1.57
2023-03-05T06:51:01.260Z,1.17
2023-03-05T06:53:27.780Z,1.30
2023-03-05T06:55:54.785Z,1.20
2023-03-05T06:58:21.827Z,1.25
2023-03-05T07:00:48.324Z,1.37
2023-03-05T07:03:14.741Z,1.20
2023-03-05T07:05:42.255Z,1.40
2023-03-05T07:08:09.192Z,1.30
2023-03-05T07:10:43.154Z,0.98
2023-03-05T07:13:10.484Z,0.93
2023-03-05T07:15:41.046Z,1.00
2023-03-05T07:18:07.461Z,0.90
2023-03-05T07:20:35.275Z,1.23
2023-03-05T07:23:01.902Z,0.80
2023-03-05T07:25:28.423Z,1.17
2023-03-05T07:27:54.784Z,0.98
2023-03-05T07:30:21.268Z,0.90
2023-03-05T07:32:47.624Z,0.80
2023-03-05T07:35:14.428Z,0.90
2023-03-05T07:37:40.799Z,1.20
2023-03-05T07:40:07.789Z,0.82
2023-03-05T07:42:34.206Z,1.10
2023-03-05T07:45:00.582Z,1.27
2023-03-05T07:47:26.923Z,0.82
2023-03-05T07:49:53.374Z,1.10
2023-03-05T07:52:19.984Z,1.20
2023-03-05T07:54:46.382Z,1.35
2023-03-05T07:57:12.797Z,0.93
2023-03-05T07:59:39.403Z,1.10
2023-03-05T08:02:06.793Z,1.30
2023-03-05T08:04:33.121Z,1.27
2023-03-05T08:06:59.987Z,1.20
2023-03-05T08:09:28.212Z,1.08
2023-03-05T08:11:54.622Z,1.20
2023-03-05T08:14:21.077Z,0.80
2023-03-05T08:16:48.497Z,1.20
2023-03-05T08:19:14.970Z,1.13
2023-03-05T08:21:41.339Z,1.10
2023-03-05T08:24:09.025Z,1.40
2023-03-05T08:26:37.731Z,1.50
2023-03-05T08:29:05.434Z,1.30
2023-03-05T08:31:32.383Z,1.27
2023-03-05T08:34:01.116Z,1.50
2023-03-05T08:36:28.642Z,1.40
2023-03-05T08:38:55.276Z,1.10
2023-03-05T08:41:22.795Z,1.08
2023-03-05T08:43:49.179Z,1.23
2023-03-05T08:46:16.722Z,1.00
2023-03-05T08:48:43.535Z,1.33
2023-03-05T08:51:16.986Z,1.20
2023-03-05T08:53:44.786Z,1.13
2023-03-05T08:56:11.497Z,1.20
2023-03-05T08:58:37.902Z,1.20
2023-03-05T09:01:04.846Z,1.27
2023-03-05T09:03:31.555Z,1.03
2023-03-05T09:06:02.134Z,1.00
2023-03-05T09:08:29.815Z,0.88
2023-03-05T09:10:56.297Z,1.58
2023-03-05T09:13:22.876Z,1.20
2023-03-05T09:16:04.021Z,1.17
2023-03-05T09:18:30.886Z,1.40
2023-03-05T09:20:57.716Z,1.35
2023-03-05T09:23:24.248Z,1.10
2023-03-05T09:25:50.843Z,1.20
2023-03-05T09:28:17.419Z,1.00
2023-03-05T09:30:43.770Z,1.40
2023-03-05T09:33:10.113Z,1.17
2023-03-05T09:35:37.440Z,1.95
2023-03-05T09:38:04.713Z,1.20
2023-03-05T09:40:54.180Z,1.40
2023-03-05T09:43:49.403Z,1.10
2023-03-05T09:46:27.878Z,1.50
2023-03-05T09:49:07.395Z,1.48
2023-03-05T09:51:37.872Z,1.25
2023-03-05T09:54:14.619Z,1.20
2023-03-05T09:56:45.344Z,1.40
2023-03-05T09:59:28.453Z,1.30
2023-03-05T10:02:00.678Z,1.45
2023-03-05T10:04:44.229Z,1.33
2023-03-05T10:07:24.059Z,1.40
2023-03-05T10:10:00.806Z,1.55
2023-03-05T10:12:39.174Z,1.40
2023-03-05T10:15:12.738Z,1.20
2023-03-05T10:17:53.906Z,1.20
2023-03-05T10:20:39.079Z,1.33
2023-03-05T10:23:23.015Z,1.75
2023-03-05T10:26:09.246Z,1.52
2023-03-05T10:28:56.818Z,1.23
2023-03-05T10:31:52.253Z,1.20
2023-03-05T10:34:52.400Z,1.30
2023-03-05T10:37:25.247Z,1.50
2023-03-05T10:40:02.716Z,1.48
2023-03-05T10:42:52.531Z,1.42
2023-03-05T10:45:26.039Z,1.20
2023-03-05T10:47:57.196Z,1.13
2023-03-05T10:50:27.261Z,1.08
2023-03-05T10:53:20.939Z,1.27
2023-03-05T10:55:47.407Z,0.90
2023-03-05T10:58:15.976Z,0.93
2023-03-05T11:00:59.292Z,1.00
2023-03-05T11:03:25.911Z,1.38
2023-03-05T11:06:00.497Z,1.00
2023-03-05T11:08:29.752Z,1.02
2023-03-05T11:11:09.688Z,1.10
2023-03-05T11:13:59.410Z,0.70
2023-03-05T11:16:28.562Z,0.73
2023-03-05T11:19:13.643Z,0.77
2023-03-05T11:21:40.923Z,0.70
2023-03-05T11:24:14.660Z,0.60
2023-03-05T11:26:47.770Z,0.80
2023-03-05T11:29:20.967Z,0.90
2023-03-05T11:31:47.370Z,0.80
2023-03-05T11:34:19.539Z,0.63
2023-03-05T11:36:51.920Z,0.85
2023-03-05T11:39:20.353Z,0.70
2023-03-05T11:41:57.793Z,0.75
2023-03-05T11:44:33.044Z,0.77
2023-03-05T11:47:13.411Z,0.80
2023-03-05T11:49:45.569Z,1.00
2023-03-05T11:52:20.392Z,0.87
2023-03-05T11:55:03.751Z,1.27
2023-03-05T11:57:41.335Z,1.00
2023-03-05T12:00:15.080Z,1.00
2023-03-05T12:02:41.678Z,0.90
2023-03-05T12:05:08.297Z,1.10
2023-03-05T12:07:39.808Z,1.30
2023-03-05T12:10:07.012Z,1.27
2023-03-05T12:12:39.653Z,1.00
2023-03-05T12:15:11.982Z,1.33
2023-03-05T12:17:47.291Z,1.10
2023-03-05T12:20:54.320Z,1.17
2023-03-05T12:23:22.217Z,1.65
2023-03-05T12:25:51.118Z,1.30
2023-03-05T12:28:37.320Z,1.60
2023-03-05T12:31:36.205Z,1.70
2023-03-05T12:34:40.683Z,1.50
2023-03-05T12:37:13.026Z,1.45
2023-03-05T12:39:42.526Z,1.60
2023-03-05T12:42:32.121Z,1.42
2023-03-05T12:45:10.559Z,1.33
2023-03-05T12:47:40.229Z,1.40
2023-03-05T12:50:28.668Z,1.80
2023-03-05T12:53:20.333Z,1.40
2023-03-05T12:56:18.342Z,1.50
2023-03-05T12:58:58.620Z,1.40
2023-03-05T13:01:33.749Z,1.55
2023-03-05T13:04:17.415Z,1.48
2023-03-05T13:06:43.771Z,1.20
2023-03-05T13:09:24.192Z,1.60
2023-03-05T13:11:52.580Z,1.47
2023-03-05T13:14:34.450Z,1.60
2023-03-05T13:17:02.671Z,1.48
2023-03-05T13:19:31.303Z,1.35
2023-03-05T13:22:02.652Z,1.50
2023-03-05T13:24:29.183Z,1.40
2023-03-05T13:26:55.994Z,1.30
2023-03-05T13:29:24.868Z,2.22
2023-03-05T13:32:00.658Z,1.73
2023-03-05T13:34:46.256Z,1.27
2023-03-05T13:37:21.986Z,1.10
2023-03-05T13:39:59.911Z,1.58
2023-03-05T13:42:31.238Z,1.40
2023-03-05T13:45:03.133Z,1.35
2023-03-05T13:47:36.106Z,1.60
2023-03-05T13:50:06.123Z,1.67
2023-03-05T13:52:35.504Z,1.90
2023-03-05T13:55:04.290Z,2.03
2023-03-05T13:57:42.931Z,2.15
2023-03-05T14:00:34.977Z,2.72
2023-03-05T14:03:20.937Z,2.00
2023-03-05T14:05:48.557Z,1.67
2023-03-05T14:08:24.630Z,2.00
2023-03-05T14:10:52.358Z,1.92
2023-03-05T14:13:24.112Z,1.85
2023-03-05T14:16:26.537Z,1.50
2023-03-05T14:18:58.554Z,1.42
2023-03-05T14:21:25.235Z,1.60
2023-03-05T14:23:53.409Z,1.30
2023-03-05T14:26:33.210Z,1.95
2023-03-05T14:29:14.183Z,1.83
2023-03-05T14:32:19.100Z,2.95
2023-03-05T14:34:52.235Z,3.10
2023-03-05T14:37:24.930Z,3.08
2023-03-05T14:40:02.409Z,3.20
2023-03-05T14:42:39.027Z,1.43
2023-03-05T14:45:16.376Z,1.30
2023-03-05T14:47:43.491Z,1.48
2023-03-05T14:50:22.154Z,1.27
2023-03-05T14:52:50.990Z,1.30
2023-03-05T14:55:21.220Z,1.00
2023-03-05T14:57:48.013Z,1.00
2023-03-05T15:00:23.432Z,0.98
2023-03-05T15:02:49.880Z,1.00
2023-03-05T15:05:17.419Z,0.85
2023-03-05T15:07:44.552Z,1.37
2023-03-05T15:10:16.023Z,0.90
2023-03-05T15:12:42.530Z,0.98
2023-03-05T15:15:11.354Z,0.70
2023-03-05T15:17:41.700Z,0.80
2023-03-05T15:20:11.258Z,0.90
2023-03-05T15:22:37.727Z,1.00
2023-03-05T15:25:04.424Z,0.95
2023-03-05T15:27:30.757Z,0.80
2023-03-05T15:29:57.178Z,0.70
2023-03-05T15:32:25.586Z,0.80
2023-03-05T15:34:52.034Z,0.70
2023-03-05T15:37:18.502Z,1.85
2023-03-05T15:39:44.796Z,0.90
2023-03-05T15:42:11.275Z,0.90
2023-03-05T15:44:37.680Z,1.00
2023-03-05T15:47:04.026Z,0.70
2023-03-05T15:49:30.348Z,1.42
2023-03-05T15:51:56.625Z,1.73
2023-03-05T15:54:23.051Z,0.90
2023-03-05T15:56:49.750Z,1.20
2023-03-05T15:59:16.086Z,1.70
2023-03-05T16:01:48.715Z,2.28
2023-03-05T16:04:16.048Z,1.33
2023-03-05T16:06:47.537Z,1.20
2023-03-05T16:09:16.975Z,2.10
2023-03-05T16:11:44.683Z,1.40
2023-03-05T16:14:11.103Z,1.10
2023-03-05T16:16:38.209Z,1.60
2023-03-05T16:19:07.089Z,2.00
2023-03-05T16:21:33.496Z,1.20
2023-03-05T16:23:59.769Z,1.27
2023-03-05T16:26:26.173Z,1.13
2023-03-05T16:28:52.537Z,1.05
2023-03-05T16:31:18.936Z,1.05
2023-03-05T16:33:45.347Z,1.00
2023-03-05T16:36:11.582Z,0.98
2023-03-05T16:38:38.086Z,1.13
2023-03-05T16:41:08.857Z,1.20
2023-03-05T16:43:35.389Z,1.10
2023-03-05T16:46:01.924Z,1.00
2023-03-05T16:48:29.829Z,0.90
2023-03-05T16:50:56.146Z,0.77
2023-03-05T16:53:22.465Z,1.40
2023-03-05T16:55:48.878Z,1.38
2023-03-05T16:58:15.605Z,1.00
2023-03-05T17:00:41.971Z,1.98
2023-03-05T17:03:08.291Z,1.20
2023-03-05T17:05:38.359Z,1.17
2023-03-05T17:08:05.027Z,1.30
2023-03-05T17:10:31.877Z,1.10
2023-03-05T17:12:58.447Z,5.68
2023-03-05T17:15:25.062Z,1.70
2023-03-05T17:17:51.414Z,1.02
2023-03-05T17:20:18.131Z,1.80
2023-03-05T17:22:44.472Z,1.40
2023-03-05T17:25:11.056Z,1.40
2023-03-05T17:27:37.484Z,1.60
2023-03-05T17:30:05.005Z,1.20
2023-03-05T17:32:31.344Z,1.20
2023-03-05T17:34:57.677Z,1.60
2023-03-05T17:37:24.001Z,1.55
2023-03-05T17:39:50.441Z,1.27
2023-03-05T17:42:16.870Z,1.40
2023-03-05T17:44:43.213Z,1.45
2023-03-05T17:47:09.537Z,1.00
2023-03-05T17:49:35.920Z,1.50
2023-03-05T17:52:02.376Z,2.00
2023-03-05T17:54:28.743Z,1.80
2023-03-05T17:56:56.091Z,1.85
2023-03-05T17:59:23.684Z,1.70
2023-03-05T18:01:50.410Z,2.08
2023-03-05T18:04:16.791Z,2.05
2023-03-05T18:06:43.618Z,2.00
2023-03-05T18:09:09.990Z,2.25
2023-03-05T18:11:36.690Z,1.90
2023-03-05T18:14:03.229Z,2.70
2023-03-05T18:16:29.754Z,2.75
2023-03-05T18:18:56.082Z,2.90
2023-03-05T18:21:24.861Z,2.50
2023-03-05T18:23:51.747Z,3.13
2023-03-05T18:26:18.084Z,3.15
2023-03-05T18:28:46.662Z,3.25
2023-03-05T18:31:13.098Z,2.97
2023-03-05T18:33:39.517Z,2.72
2023-03-05T18:36:06.430Z,3.03
2023-03-05T18:38:32.894Z,2.55
2023-03-05T18:41:02.946Z,2.40
2023-03-05T18:43:29.320Z,2.55
2023-03-05T18:45:56.493Z,2.65
2023-03-05T18:48:23.242Z,3.40
2023-03-05T18:50:50.761Z,3.53
2023-03-05T18:53:17.278Z,2.15
2023-03-05T18:55:43.835Z,2.63
2023-03-05T18:58:11.018Z,2.47
2023-03-05T19:00:37.303Z,2.17
2023-03-05T19:03:03.974Z,2.83
2023-03-05T19:05:30.356Z,3.20
2023-03-05T19:07:56.754Z,3.97
2023-03-05T19:10:23.847Z,2.85
2023-03-05T19:12:50.187Z,2.70
2023-03-05T19:15:16.968Z,4.10
2023-03-05T19:17:43.578Z,3.72
2023-03-05T19:20:12.524Z,3.75
2023-03-05T19:22:38.911Z,3.60
2023-03-05T19:25:05.802Z,3.13
2023-03-05T19:27:32.298Z,3.15
2023-03-05T19:29:58.632Z,2.80
2023-03-05T19:32:25.157Z,2.10
2023-03-05T19:34:55.251Z,2.10
2023-03-05T19:37:21.695Z,2.40
2023-03-05T19:39:48.478Z,2.30
2023-03-05T19:42:15.334Z,2.00
2023-03-05T19:44:41.707Z,1.80
2023-03-05T19:47:08.337Z,1.80
2023-03-05T19:49:37.504Z,1.90
2023-03-05T19:52:04.044Z,1.88
2023-03-05T19:54:30.427Z,2.10
2023-03-05T19:56:56.818Z,1.80
2023-03-05T19:59:23.773Z,1.70
2023-03-05T20:01:50.195Z,2.00
2023-03-05T20:04:21.107Z,2.00
2023-03-05T20:06:47.496Z,1.50
2023-03-05T20:09:14.856Z,1.70
2023-03-05T20:11:42.048Z,2.20
2023-03-05T20:14:09.734Z,1.73
2023-03-05T20:16:37.569Z,1.48
2023-03-05T20:19:06.164Z,1.70
2023-03-05T20:21:38.900Z,1.92
2023-03-05T20:24:09.798Z,1.83
2023-03-05T20:26:38.541Z,1.50
2023-03-05T20:29:05.412Z,1.60
2023-03-05T20:31:33.343Z,1.27
2023-03-05T20:34:00.315Z,1.73
2023-03-05T20:36:26.646Z,1.65
2023-03-05T20:38:52.960Z,1.17
2023-03-05T20:41:20.175Z,1.55
2023-03-05T20:43:48.747Z,1.30
2023-03-05T20:46:23.231Z,1.40
2023-03-05T20:48:52.491Z,1.60
2023-03-05T20:51:24.591Z,1.40
2023-03-05T20:53:57.102Z,1.33
2023-03-05T20:56:24.969Z,1.30
2023-03-05T20:58:51.346Z,1.42
2023-03-05T21:01:17.699Z,1.55
2023-03-05T21:03:44.143Z,1.00
2023-03-05T21:06:10.550Z,1.42
2023-03-05T21:08:37.412Z,1.17
2023-03-05T21:11:08.336Z,1.15
2023-03-05T21:13:35.650Z,1.08
2023-03-05T21:16:10.356Z,1.00
2023-03-05T21:18:37.052Z,0.93
2023-03-05T21:21:03.534Z,1.48
2023-03-05T21:23:29.872Z,1.02
2023-03-05T21:25:56.296Z,1.67
2023-03-05T21:28:23.215Z,1.33
2023-03-05T21:30:52.518Z,1.20
2023-03-05T21:33:27.916Z,1.33
2023-03-05T21:35:54.944Z,1.13
2023-03-05T21:38:22.343Z,1.30
2023-03-05T21:40:49.925Z,1.20
2023-03-05T21:43:19.230Z,1.27
2023-03-05T21:45:46.174Z,1.25
2023-03-05T21:48:12.983Z,1.13
2023-03-05T21:50:41.407Z,1.23
2023-03-05T21:53:08.130Z,1.17
2023-03-05T21:55:34.530Z,1.10
2023-03-05T21:58:00.896Z,1.13
2023-03-05T22:00:28.469Z,1.20
2023-03-05T22:02:54.809Z,1.27
2023-03-05T22:05:21.263Z,1.07
2023-03-05T22:07:47.748Z,1.00
2023-03-05T22:10:17.602Z,1.10
2023-03-05T22:12:47.612Z,1.10
2023-03-05T22:15:13.880Z,0.90
2023-03-05T22:17:40.215Z,0.97
2023-03-05T22:20:06.944Z,1.17
2023-03-05T22:22:33.314Z,1.10
2023-03-05T22:24:59.644Z,1.13
2023-03-05T22:27:25.947Z,1.10
2023-03-05T22:29:52.296Z,1.10
2023-03-05T22:32:18.728Z,1.00
2023-03-05T22:34:45.054Z,1.42
2023-03-05T22:37:11.549Z,1.00
2023-03-05T22:39:37.908Z,1.00
2023-03-05T22:42:04.870Z,1.20
2023-03-05T22:44:31.288Z,1.00
2023-03-05T22:46:57.603Z,1.08
2023-03-05T22:49:23.925Z,0.73
2023-03-05T22:51:50.218Z,1.20
2023-03-05T22:54:16.536Z,1.07
2023-03-05T22:56:42.897Z,1.10
2023-03-05T22:59:09.175Z,1.10
2023-03-05T23:01:35.437Z,1.13
2023-03-05T23:04:02.880Z,1.20
2023-03-05T23:06:29.325Z,1.13
2023-03-05T23:08:55.666Z,1.20
2023-03-05T23:11:21.971Z,1.48
2023-03-05T23:13:48.751Z,1.50
2023-03-05T23:16:15.167Z,1.42
2023-03-05T23:18:41.652Z,1.30
2023-03-05T23:21:08.029Z,1.67
2023-03-05T23:23:34.492Z,1.50
2023-03-05T23:26:00.857Z,1.50
2023-03-05T23:28:27.299Z,1.42
2023-03-05T23:30:53.654Z,1.57
2023-03-05T23:33:22.454Z,1.33
2023-03-05T23:35:53.266Z,1.90
2023-03-05T23:38:31.723Z,1.60
2023-03-05T23:41:00.852Z,1.70
2023-03-05T23:43:27.665Z,1.40
2023-03-05T23:45:54.148Z,1.42
2023-03-05T23:48:22.476Z,1.65
2023-03-05T23:50:49.327Z,1.50
2023-03-05T23:53:28.065Z,1.70
2023-03-05T23:55:55.621Z,1.47
2023-03-05T23:58:23.000Z,1.60
